createdAt,value
2019-03-17T00:00:13.444Z,100.00
2019-03-17T00:02:41.911Z,100.00
2019-03-17T00:05:11.821Z,100.00
2019-03-17T00:07:40.949Z,100.00
2019-03-17T00:10:09.533Z,100.00
2019-03-17T00:12:38.116Z,100.00
2019-03-17T00:15:07.225Z,100.00
2019-03-17T00:17:35.715Z,100.00
2019-03-17T00:20:08.386Z,100.00
2019-03-17T00:22:36.857Z,100.00
2019-03-17T00:25:09.475Z,100.00
2019-03-17T00:27:36.617Z,100.00
2019-03-17T00:30:10.653Z,100.00
2019-03-17T00:32:39.123Z,100.00
2019-03-17T00:35:07.805Z,100.00
2019-03-17T00:37:36.315Z,100.00
2019-03-17T00:40:07.250Z,100.00
2019-03-17T00:42:36.225Z,100.00
2019-03-17T00:45:06.832Z,100.00
2019-03-17T00:47:35.288Z,100.00
2019-03-17T00:50:09.442Z,100.00
2019-03-17T00:52:38.427Z,100.00
2019-03-17T00:55:07.327Z,100.00
2019-03-17T00:57:35.872Z,100.00
2019-03-17T01:00:10.998Z,100.00
2019-03-17T01:02:39.531Z,100.00
2019-03-17T01:05:08.230Z,100.00
2019-03-17T01:07:36.693Z,100.00
2019-03-17T01:10:07.577Z,100.00
2019-03-17T01:12:36.159Z,100.00
2019-03-17T01:15:06.476Z,100.00
2019-03-17T01:17:34.938Z,100.00
2019-03-17T01:20:04.046Z,100.00
2019-03-17T01:22:32.527Z,100.00
2019-03-17T01:25:01.278Z,100.00
2019-03-17T01:27:29.938Z,100.00
2019-03-17T01:29:58.411Z,100.00
2019-03-17T01:32:26.895Z,100.00
2019-03-17T01:35:08.148Z,100.00
2019-03-17T01:37:25.700Z,100.00
2019-03-17T01:39:54.189Z,100.00
2019-03-17T01:42:22.804Z,100.00
2019-03-17T01:44:51.262Z,100.00
2019-03-17T01:47:19.744Z,100.00
2019-03-17T01:49:48.364Z,100.00
2019-03-17T01:52:16.829Z,100.00
2019-03-17T01:54:45.602Z,100.00
2019-03-17T01:57:14.148Z,100.00
2019-03-17T01:59:42.660Z,100.00
2019-03-17T02:02:11.239Z,100.00
2019-03-17T02:04:45.824Z,100.00
2019-03-17T02:07:16.325Z,100.00
2019-03-17T02:09:44.861Z,100.00
2019-03-17T02:12:13.409Z,100.00
2019-03-17T02:14:41.851Z,100.00
2019-03-17T02:17:10.414Z,100.00
2019-03-17T02:19:38.912Z,100.00
2019-03-17T02:22:07.444Z,100.00
2019-03-17T02:24:35.899Z,100.00
2019-03-17T02:27:04.651Z,100.00
2019-03-17T02:29:33.116Z,100.00
2019-03-17T02:32:01.578Z,100.00
2019-03-17T02:34:30.258Z,100.00
2019-03-17T02:36:58.707Z,100.00
2019-03-17T02:39:27.265Z,100.00
2019-03-17T02:41:55.845Z,100.00
2019-03-17T02:44:24.406Z,100.00
2019-03-17T02:46:52.863Z,100.00
2019-03-17T02:49:21.429Z,100.00
2019-03-17T02:51:49.898Z,100.00
2019-03-17T02:54:18.362Z,100.00
2019-03-17T02:56:46.998Z,100.00
2019-03-17T02:59:15.578Z,100.00
2019-03-17T03:01:44.042Z,100.00
2019-03-17T03:04:12.750Z,100.00
2019-03-17T03:06:42.217Z,100.00
2019-03-17T03:09:11.689Z,100.00
2019-03-17T03:11:41.252Z,100.00
2019-03-17T03:14:09.849Z,100.00
2019-03-17T03:16:38.331Z,100.00
2019-03-17T03:19:07.051Z,100.00
2019-03-17T03:21:35.608Z,100.00
2019-03-17T03:24:04.061Z,100.00
2019-03-17T03:26:32.577Z,100.00
2019-03-17T03:29:01.138Z,100.00
2019-03-17T03:31:29.590Z,100.00
2019-03-17T03:33:58.159Z,100.00
2019-03-17T03:36:26.612Z,100.00
2019-03-17T03:38:55.093Z,100.00
2019-03-17T03:41:23.841Z,100.00
2019-03-17T03:43:52.364Z,100.00
2019-03-17T03:46:20.807Z,100.00
2019-03-17T03:48:49.548Z,100.00
2019-03-17T03:51:18.093Z,100.00
2019-03-17T03:53:46.553Z,100.00
2019-03-17T03:56:16.219Z,100.00
2019-03-17T03:58:46.427Z,100.00
2019-03-17T04:01:14.965Z,100.00
2019-03-17T04:03:43.503Z,100.00
2019-03-17T04:06:25.608Z,100.00
2019-03-17T04:08:42.226Z,100.00
2019-03-17T04:11:10.866Z,100.00
2019-03-17T04:13:39.303Z,100.00
2019-03-17T04:16:07.765Z,100.00
2019-03-17T04:18:36.300Z,100.00
2019-03-17T04:21:04.827Z,100.00
2019-03-17T04:23:33.298Z,100.00
2019-03-17T04:26:01.855Z,100.00
2019-03-17T04:28:30.321Z,100.00
2019-03-17T04:30:58.892Z,100.00
2019-03-17T04:33:27.660Z,100.00
2019-03-17T04:35:56.128Z,100.00
2019-03-17T04:38:25.594Z,100.00
2019-03-17T04:40:55.587Z,100.00
2019-03-17T04:43:24.068Z,100.00
2019-03-17T04:45:52.567Z,100.00
2019-03-17T04:48:21.234Z,100.00
2019-03-17T04:50:49.773Z,100.00
2019-03-17T04:53:18.332Z,100.00
2019-03-17T04:55:47.002Z,100.00
2019-03-17T04:58:15.559Z,100.00
2019-03-17T05:00:44.864Z,100.00
2019-03-17T05:03:13.478Z,100.00
2019-03-17T05:05:41.999Z,100.00
2019-03-17T05:08:10.480Z,100.00
2019-03-17T05:10:39.020Z,100.00
2019-03-17T05:13:07.498Z,100.00
2019-03-17T05:15:36.038Z,100.00
2019-03-17T05:18:05.493Z,100.00
2019-03-17T05:20:33.954Z,100.00
2019-03-17T05:23:02.424Z,100.00
2019-03-17T05:25:31.077Z,100.00
2019-03-17T05:27:59.539Z,100.00
2019-03-17T05:30:28.031Z,100.00
2019-03-17T05:32:56.641Z,100.00
2019-03-17T05:35:25.112Z,100.00
2019-03-17T05:37:53.588Z,100.00
2019-03-17T05:40:22.135Z,100.00
2019-03-17T05:42:50.597Z,100.00
2019-03-17T05:45:19.070Z,100.00
2019-03-17T05:47:47.677Z,100.00
2019-03-17T05:50:16.279Z,100.00
2019-03-17T05:52:44.751Z,100.00
2019-03-17T05:55:13.283Z,100.00
2019-03-17T05:57:41.746Z,100.00
2019-03-17T06:00:13.320Z,100.00
2019-03-17T06:02:42.057Z,100.00
2019-03-17T06:05:10.781Z,100.00
2019-03-17T06:07:39.302Z,100.00
2019-03-17T06:10:08.839Z,100.00
2019-03-17T06:12:37.405Z,100.00
2019-03-17T06:15:11.233Z,100.00
2019-03-17T06:17:39.830Z,100.00
2019-03-17T06:20:11.058Z,100.00
2019-03-17T06:22:39.585Z,100.00
2019-03-17T06:25:10.304Z,100.00
2019-03-17T06:27:38.783Z,100.00
2019-03-17T06:30:10.698Z,99.59
2019-03-17T06:32:39.333Z,99.20
2019-03-17T06:35:07.954Z,98.61
2019-03-17T06:37:37.371Z,98.17
2019-03-17T06:40:11.766Z,97.82
2019-03-17T06:42:40.219Z,97.40
2019-03-17T06:45:10.743Z,97.20
2019-03-17T06:47:40.889Z,96.80
2019-03-17T06:50:14.287Z,96.71
2019-03-17T06:52:42.974Z,96.32
2019-03-17T06:55:18.473Z,96.03
2019-03-17T06:57:47.244Z,96.08
2019-03-17T07:00:16.128Z,95.66
2019-03-17T07:02:44.575Z,95.62
2019-03-17T07:05:13.451Z,95.62
2019-03-17T07:07:44.384Z,95.27
2019-03-17T07:10:13.145Z,94.87
2019-03-17T07:12:41.824Z,94.58
2019-03-17T07:15:11.617Z,93.49
2019-03-17T07:17:40.159Z,92.64
2019-03-17T07:20:13.654Z,91.98
2019-03-17T07:22:42.188Z,91.75
2019-03-17T07:25:10.795Z,91.08
2019-03-17T07:27:39.380Z,91.08
2019-03-17T07:30:14.777Z,90.22
2019-03-17T07:32:43.408Z,90.08
2019-03-17T07:35:12.068Z,89.41
2019-03-17T07:37:40.534Z,88.66
2019-03-17T07:40:12.011Z,87.94
2019-03-17T07:42:40.614Z,87.35
2019-03-17T07:45:10.863Z,85.46
2019-03-17T07:47:39.335Z,85.22
2019-03-17T07:50:13.253Z,84.08
2019-03-17T07:52:42.694Z,83.62
2019-03-17T07:55:11.475Z,83.18
2019-03-17T07:57:40.060Z,81.72
2019-03-17T08:00:11.401Z,80.89
2019-03-17T08:02:39.942Z,79.77
2019-03-17T08:05:09.997Z,79.18
2019-03-17T08:07:38.647Z,78.73
2019-03-17T08:10:13.305Z,78.87
2019-03-17T08:12:41.912Z,78.56
2019-03-17T08:15:12.138Z,77.84
2019-03-17T08:17:40.691Z,78.31
2019-03-17T08:20:10.669Z,78.41
2019-03-17T08:22:39.199Z,77.84
2019-03-17T08:25:10.035Z,78.53
2019-03-17T08:27:38.636Z,78.36
2019-03-17T08:30:14.965Z,77.54
2019-03-17T08:32:43.482Z,77.76
2019-03-17T08:35:12.478Z,77.07
2019-03-17T08:37:40.933Z,74.40
2019-03-17T08:40:12.237Z,73.70
2019-03-17T08:42:40.822Z,73.86
2019-03-17T08:45:11.465Z,72.39
2019-03-17T08:47:39.993Z,71.23
2019-03-17T08:50:13.037Z,70.14
2019-03-17T08:52:41.525Z,70.72
2019-03-17T08:55:11.147Z,71.26
2019-03-17T08:57:39.837Z,70.60
2019-03-17T09:00:11.415Z,69.58
2019-03-17T09:02:39.888Z,67.73
2019-03-17T09:05:08.842Z,68.08
2019-03-17T09:07:37.281Z,68.82
2019-03-17T09:10:14.595Z,66.24
2019-03-17T09:12:43.054Z,66.33
2019-03-17T09:15:11.792Z,64.28
2019-03-17T09:17:40.396Z,64.51
2019-03-17T09:20:13.884Z,63.00
2019-03-17T09:22:42.435Z,61.94
2019-03-17T09:25:11.659Z,62.06
2019-03-17T09:27:40.375Z,63.33
2019-03-17T09:30:18.793Z,62.29
2019-03-17T09:32:47.917Z,62.11
2019-03-17T09:35:16.383Z,61.23
2019-03-17T09:37:45.134Z,59.11
2019-03-17T09:40:17.387Z,57.19
2019-03-17T09:42:45.954Z,57.94
2019-03-17T09:45:15.455Z,58.25
2019-03-17T09:47:44.000Z,59.36
2019-03-17T09:50:17.697Z,56.18
2019-03-17T09:52:47.305Z,58.59
2019-03-17T09:55:15.770Z,56.75
2019-03-17T09:57:44.427Z,55.58
2019-03-17T10:00:19.110Z,55.68
2019-03-17T10:02:47.641Z,53.38
2019-03-17T10:05:16.230Z,52.87
2019-03-17T10:07:44.852Z,51.33
2019-03-17T10:10:24.306Z,50.80
2019-03-17T10:12:53.752Z,51.23
2019-03-17T10:15:22.274Z,51.43
2019-03-17T10:17:50.823Z,50.54
2019-03-17T10:20:20.338Z,48.99
2019-03-17T10:22:49.029Z,49.98
2019-03-17T10:25:17.632Z,49.75
2019-03-17T10:27:46.300Z,49.92
2019-03-17T10:30:17.828Z,48.58
2019-03-17T10:32:47.187Z,46.36
2019-03-17T10:35:15.805Z,45.08
2019-03-17T10:37:44.522Z,43.43
2019-03-17T10:40:16.865Z,43.76
2019-03-17T10:42:45.515Z,44.18
2019-03-17T10:45:14.513Z,43.71
2019-03-17T10:47:43.049Z,43.98
2019-03-17T10:50:14.028Z,44.54
2019-03-17T10:52:42.564Z,39.95
2019-03-17T10:55:11.980Z,40.25
2019-03-17T10:57:40.613Z,41.74
2019-03-17T11:00:16.854Z,39.77
2019-03-17T11:02:45.492Z,39.85
2019-03-17T11:05:14.191Z,39.94
2019-03-17T11:07:42.725Z,38.27
2019-03-17T11:10:12.420Z,39.49
2019-03-17T11:12:40.875Z,37.14
2019-03-17T11:15:13.504Z,38.99
2019-03-17T11:17:42.039Z,39.08
2019-03-17T11:20:12.211Z,39.46
2019-03-17T11:22:41.067Z,38.27
2019-03-17T11:25:16.730Z,38.14
2019-03-17T11:27:45.193Z,37.72
2019-03-17T11:30:15.291Z,35.91
2019-03-17T11:32:43.820Z,36.92
2019-03-17T11:35:12.570Z,34.28
2019-03-17T11:37:41.158Z,34.79
2019-03-17T11:40:22.087Z,35.48
2019-03-17T11:42:51.057Z,34.96
2019-03-17T11:45:19.510Z,35.43
2019-03-17T11:47:48.733Z,32.85
2019-03-17T11:50:21.680Z,32.26
2019-03-17T11:52:50.888Z,31.54
2019-03-17T11:55:19.588Z,31.01
2019-03-17T11:57:48.490Z,29.21
2019-03-17T12:00:22.138Z,29.34
2019-03-17T12:02:50.602Z,30.12
2019-03-17T12:05:19.231Z,31.10
2019-03-17T12:07:47.697Z,29.66
2019-03-17T12:10:24.113Z,30.65
2019-03-17T12:12:52.657Z,29.92
2019-03-17T12:15:23.787Z,29.31
2019-03-17T12:17:52.490Z,28.64
2019-03-17T12:20:21.223Z,26.21
2019-03-17T12:22:49.749Z,27.44
2019-03-17T12:25:19.052Z,26.58
2019-03-17T12:27:48.010Z,25.82
2019-03-17T12:30:23.923Z,25.12
2019-03-17T12:32:53.138Z,25.95
2019-03-17T12:35:22.229Z,26.17
2019-03-17T12:37:50.758Z,25.09
2019-03-17T12:40:19.299Z,25.51
2019-03-17T12:42:47.955Z,25.59
2019-03-17T12:45:16.485Z,25.10
2019-03-17T12:47:44.955Z,25.56
2019-03-17T12:50:21.485Z,25.11
2019-03-17T12:52:50.025Z,24.58
2019-03-17T12:55:18.551Z,25.78
2019-03-17T12:57:47.342Z,25.06
2019-03-17T13:00:20.363Z,24.30
2019-03-17T13:02:48.822Z,24.38
2019-03-17T13:05:17.509Z,24.02
2019-03-17T13:07:46.040Z,23.86
2019-03-17T13:10:21.938Z,25.77
2019-03-17T13:12:50.512Z,24.99
2019-03-17T13:15:19.051Z,24.30
2019-03-17T13:17:47.587Z,25.01
2019-03-17T13:20:21.125Z,25.27
2019-03-17T13:22:49.886Z,25.34
2019-03-17T13:25:18.342Z,25.78
2019-03-17T13:27:47.005Z,26.90
2019-03-17T13:30:16.570Z,26.57
2019-03-17T13:32:45.099Z,26.06
2019-03-17T13:35:13.941Z,25.98
2019-03-17T13:37:42.696Z,26.15
2019-03-17T13:40:28.931Z,27.71
2019-03-17T13:42:49.419Z,26.60
2019-03-17T13:45:17.911Z,25.70
2019-03-17T13:47:46.525Z,24.80
2019-03-17T13:50:23.482Z,25.78
2019-03-17T13:52:52.131Z,23.95
2019-03-17T13:55:21.594Z,24.17
2019-03-17T13:58:01.364Z,24.17
2019-03-17T14:00:29.923Z,23.84
2019-03-17T14:02:58.433Z,23.38
2019-03-17T14:05:27.126Z,23.16
2019-03-17T14:07:55.579Z,23.65
2019-03-17T14:10:24.112Z,23.90
2019-03-17T14:12:52.673Z,23.64
2019-03-17T14:15:22.157Z,22.46
2019-03-17T14:17:50.676Z,21.84
2019-03-17T14:20:21.090Z,21.16
2019-03-17T14:22:49.978Z,21.64
2019-03-17T14:25:29.435Z,22.60
2019-03-17T14:28:00.695Z,22.52
2019-03-17T14:30:29.336Z,22.28
2019-03-17T14:32:57.958Z,22.55
2019-03-17T14:35:27.605Z,22.06
2019-03-17T14:37:56.219Z,22.00
2019-03-17T14:40:24.763Z,21.86
2019-03-17T14:42:55.364Z,21.55
2019-03-17T14:45:23.644Z,21.88
2019-03-17T14:47:52.423Z,23.39
2019-03-17T14:50:22.014Z,22.58
2019-03-17T14:52:50.524Z,24.08
2019-03-17T14:55:19.236Z,23.09
2019-03-17T14:57:47.771Z,23.14
2019-03-17T15:00:18.717Z,23.93
2019-03-17T15:02:47.406Z,23.00
2019-03-17T15:05:16.136Z,22.69
2019-03-17T15:07:44.677Z,22.15
2019-03-17T15:10:19.952Z,21.60
2019-03-17T15:12:48.564Z,21.64
2019-03-17T15:15:21.338Z,21.24
2019-03-17T15:17:50.142Z,21.37
2019-03-17T15:20:27.664Z,21.39
2019-03-17T15:22:56.762Z,22.66
2019-03-17T15:25:25.308Z,22.05
2019-03-17T15:27:53.764Z,22.18
2019-03-17T15:30:29.435Z,22.41
2019-03-17T15:32:58.074Z,23.15
2019-03-17T15:35:26.611Z,24.00
2019-03-17T15:37:55.226Z,24.20
2019-03-17T15:40:23.684Z,24.77
2019-03-17T15:42:52.175Z,24.87
2019-03-17T15:45:25.592Z,24.98
2019-03-17T15:47:54.286Z,24.61
2019-03-17T15:50:25.100Z,25.15
2019-03-17T15:52:54.658Z,25.92
2019-03-17T15:55:23.291Z,27.83
2019-03-17T15:57:51.752Z,28.14
2019-03-17T16:00:25.548Z,30.00
2019-03-17T16:02:51.759Z,30.67
2019-03-17T16:05:20.313Z,32.10
2019-03-17T16:07:49.159Z,32.41
2019-03-17T16:10:29.083Z,32.38
2019-03-17T16:12:57.745Z,32.79
2019-03-17T16:15:26.307Z,32.99
2019-03-17T16:17:54.776Z,33.01
2019-03-17T16:20:24.319Z,34.48
2019-03-17T16:22:52.880Z,35.77
2019-03-17T16:25:38.519Z,36.16
2019-03-17T16:28:06.992Z,36.78
2019-03-17T16:30:35.566Z,37.74
2019-03-17T16:33:04.686Z,38.74
2019-03-17T16:35:33.222Z,39.04
2019-03-17T16:38:01.854Z,38.47
2019-03-17T16:40:34.745Z,38.19
2019-03-17T16:43:03.524Z,37.97
2019-03-17T16:45:32.148Z,37.88
2019-03-17T16:48:00.627Z,39.13
2019-03-17T16:50:29.093Z,40.23
2019-03-17T16:52:57.650Z,41.06
2019-03-17T16:55:26.247Z,41.33
2019-03-17T16:57:54.783Z,41.77
2019-03-17T17:00:24.609Z,41.43
2019-03-17T17:02:53.253Z,41.20
2019-03-17T17:05:26.329Z,40.92
2019-03-17T17:07:54.994Z,40.41
2019-03-17T17:10:27.803Z,39.41
2019-03-17T17:12:56.392Z,39.69
2019-03-17T17:15:27.157Z,40.07
2019-03-17T17:17:55.696Z,40.93
2019-03-17T17:20:33.041Z,41.73
2019-03-17T17:23:01.504Z,41.53
2019-03-17T17:25:30.093Z,41.68
2019-03-17T17:27:58.731Z,41.21
2019-03-17T17:30:27.309Z,39.99
2019-03-17T17:32:57.244Z,39.96
2019-03-17T17:35:25.801Z,40.27
2019-03-17T17:37:55.242Z,40.77
2019-03-17T17:40:27.478Z,40.79
2019-03-17T17:42:56.081Z,41.20
2019-03-17T17:45:25.540Z,41.33
2019-03-17T17:47:54.254Z,41.70
2019-03-17T17:50:24.301Z,41.99
2019-03-17T17:52:52.862Z,42.40
2019-03-17T17:55:21.888Z,43.59
2019-03-17T17:57:52.583Z,44.17
2019-03-17T18:00:27.848Z,44.32
2019-03-17T18:02:58.652Z,43.47
2019-03-17T18:05:26.725Z,42.85
2019-03-17T18:07:55.342Z,43.13
2019-03-17T18:10:23.849Z,43.42
2019-03-17T18:12:52.313Z,43.58
2019-03-17T18:15:26.246Z,43.16
2019-03-17T18:17:54.802Z,42.67
2019-03-17T18:20:23.409Z,42.10
2019-03-17T18:22:52.970Z,42.00
2019-03-17T18:25:22.193Z,42.28
2019-03-17T18:27:50.773Z,42.86
2019-03-17T18:30:20.760Z,42.73
2019-03-17T18:32:49.285Z,41.41
2019-03-17T18:35:17.837Z,40.99
2019-03-17T18:37:46.457Z,43.41
2019-03-17T18:40:16.966Z,42.71
2019-03-17T18:42:45.596Z,42.39
2019-03-17T18:45:25.458Z,41.26
2019-03-17T18:47:53.984Z,41.72
2019-03-17T18:50:22.628Z,43.72
2019-03-17T18:52:51.406Z,55.25
2019-03-17T18:55:20.005Z,60.41
2019-03-17T18:57:48.533Z,63.40
2019-03-17T19:00:22.391Z,65.40
2019-03-17T19:02:50.705Z,67.51
2019-03-17T19:05:20.414Z,69.03
2019-03-17T19:07:51.135Z,70.47
2019-03-17T19:10:20.820Z,72.00
2019-03-17T19:12:49.416Z,73.33
2019-03-17T19:15:22.731Z,73.99
2019-03-17T19:17:52.536Z,74.65
2019-03-17T19:20:21.852Z,75.59
2019-03-17T19:22:51.288Z,76.03
2019-03-17T19:25:22.021Z,75.15
2019-03-17T19:27:50.665Z,73.79
2019-03-17T19:30:25.098Z,73.59
2019-03-17T19:32:53.610Z,73.73
2019-03-17T19:35:22.072Z,74.15
2019-03-17T19:37:51.590Z,72.71
2019-03-17T19:40:21.289Z,71.28
2019-03-17T19:42:58.591Z,69.87
2019-03-17T19:45:20.257Z,69.55
2019-03-17T19:47:48.693Z,69.61
2019-03-17T19:50:18.705Z,69.40
2019-03-17T19:52:48.951Z,70.02
2019-03-17T19:55:17.441Z,70.47
2019-03-17T19:57:45.974Z,70.78
2019-03-17T20:00:19.581Z,71.03
2019-03-17T20:02:48.171Z,71.07
2019-03-17T20:05:16.721Z,71.02
2019-03-17T20:07:45.390Z,71.23
2019-03-17T20:10:25.671Z,71.08
2019-03-17T20:12:54.355Z,71.21
2019-03-17T20:15:22.800Z,71.67
2019-03-17T20:17:51.252Z,71.32
2019-03-17T20:20:19.901Z,72.07
2019-03-17T20:22:48.353Z,71.56
2019-03-17T20:25:16.852Z,71.71
2019-03-17T20:27:45.983Z,72.00
2019-03-17T20:30:15.774Z,72.14
2019-03-17T20:32:44.304Z,72.47
2019-03-17T20:35:13.598Z,72.70
2019-03-17T20:37:42.302Z,72.85
2019-03-17T20:40:13.260Z,73.13
2019-03-17T20:42:41.839Z,73.50
2019-03-17T20:45:14.703Z,73.35
2019-03-17T20:47:43.281Z,74.25
2019-03-17T20:50:14.305Z,74.05
2019-03-17T20:52:42.848Z,73.83
2019-03-17T20:55:11.975Z,74.07
2019-03-17T20:57:40.703Z,73.96
2019-03-17T21:00:14.960Z,73.77
2019-03-17T21:02:43.411Z,74.05
2019-03-17T21:05:12.814Z,74.36
2019-03-17T21:07:41.629Z,74.63
2019-03-17T21:10:12.770Z,74.87
2019-03-17T21:12:41.325Z,75.19
2019-03-17T21:15:12.716Z,75.73
2019-03-17T21:17:41.373Z,76.20
2019-03-17T21:20:18.012Z,77.18
2019-03-17T21:22:46.474Z,76.64
2019-03-17T21:25:15.113Z,77.09
2019-03-17T21:27:45.187Z,77.48
2019-03-17T21:30:24.983Z,77.65
2019-03-17T21:32:53.448Z,77.31
2019-03-17T21:35:21.968Z,77.49
2019-03-17T21:37:50.949Z,77.80
2019-03-17T21:40:19.423Z,77.48
2019-03-17T21:42:47.944Z,78.27
2019-03-17T21:45:16.520Z,78.92
2019-03-17T21:47:45.054Z,78.68
2019-03-17T21:50:20.696Z,79.01
2019-03-17T21:52:49.307Z,79.43
2019-03-17T21:55:18.014Z,79.87
2019-03-17T21:57:46.533Z,80.08
2019-03-17T22:00:16.530Z,80.50
2019-03-17T22:02:45.006Z,80.05
2019-03-17T22:05:14.300Z,79.96
2019-03-17T22:07:49.489Z,80.08
2019-03-17T22:10:21.932Z,80.35
2019-03-17T22:12:50.574Z,80.51
2019-03-17T22:15:19.803Z,80.90
2019-03-17T22:17:48.261Z,80.05
2019-03-17T22:20:17.626Z,80.86
2019-03-17T22:22:46.241Z,82.08
2019-03-17T22:25:15.373Z,83.12
2019-03-17T22:27:43.995Z,83.71
2019-03-17T22:30:22.101Z,84.02
2019-03-17T22:32:57.542Z,84.63
2019-03-17T22:35:25.996Z,85.08
2019-03-17T22:37:54.446Z,85.61
2019-03-17T22:40:23.055Z,86.32
2019-03-17T22:42:51.532Z,86.62
2019-03-17T22:45:19.998Z,87.19
2019-03-17T22:47:53.974Z,87.79
2019-03-17T22:50:22.398Z,88.61
2019-03-17T22:52:50.913Z,89.57
2019-03-17T22:55:19.558Z,90.40
2019-03-17T22:57:48.011Z,91.21
2019-03-17T23:00:20.015Z,92.21
2019-03-17T23:02:48.580Z,92.70
2019-03-17T23:05:17.104Z,93.46
2019-03-17T23:07:45.673Z,94.18
2019-03-17T23:10:14.264Z,94.46
2019-03-17T23:12:42.944Z,94.53
2019-03-17T23:15:12.927Z,94.65
2019-03-17T23:17:41.411Z,95.27
2019-03-17T23:20:12.350Z,96.18
2019-03-17T23:22:40.875Z,97.08
2019-03-17T23:25:10.564Z,97.63
2019-03-17T23:27:39.041Z,98.11
2019-03-17T23:30:13.398Z,98.58
2019-03-17T23:32:42.067Z,99.07
2019-03-17T23:35:10.667Z,99.60
2019-03-17T23:37:39.804Z,100.00
2019-03-17T23:40:10.329Z,99.82
2019-03-17T23:42:38.786Z,99.62
2019-03-17T23:45:09.626Z,99.56
2019-03-17T23:47:38.417Z,99.58
2019-03-17T23:50:09.331Z,99.73
2019-03-17T23:52:37.931Z,99.68
2019-03-17T23:55:08.126Z,99.73
2019-03-17T23:57:36.589Z,99.77
